Minnetonka Mills, Minnesota
Current Conditions -  °F | °C
As of 1:53 PM on Wednesday 17 Dec 2014 (Local Time) from KFCM Reporting Station
Clear Clear  
Wind Chill:   Ceiling: Unl
Heat Index: 20°   Visibility: 10mi
Dew Point:   Wind: 9mph
Humidity: 62%   Direction: 300°WNW
Pressure: 30.27"   Gusts: NA
Location:  44.9144°N, 93.4174°W
Report Text: KFCM 171953Z 30008KT 10SM CLR M07/M13 A3027 RMK AO2 SLP270 T10671128
Loading
Personal Weather Stations






























Interactive Weather Map New forecast layout! Learn more

10-Day Weather Forecast

Advertisements
Track Severe Weather on mobile